Airfield :
LOGIN :

Register | Disclaimer

   EN    FR    IT 

 










Legend :    VFR   Marginal VFR   IFR   Intensive IFR   Very Intensive IFR
Visi :
Ceiling :
>= 8 km
>= 3000ft
5 to 8 km
1000 to 3000 ft
1500m to 5 km
500 to 1000 ft
800 to 1500m
200 to 500 ft
< 800m
< 200 ft
Symbols :   Thunderstorms  Fog  Heavy snow  Heavy precipitations  Wind > 20 kt
SIGMETs :     Misc.  Thunderstorms  Icing  Turbulence  Mountain Waves  Volcanic Ashes






- Airport Elevation : 81 ft
- IATA code : SCS


EGPM - Scatsta

CURRENT METAR :
  • 170420Z AUTO 19008KT 9999 FEW016/// BKN026/// 05/02 Q1009

EXPIRED METARs :
  • 170350Z AUTO 24008KT 9999 -RA SCT019/// BKN032/// 04/03 Q1009
  • 170320Z AUTO 22007KT 9999 NCD 04/03 Q1008
  • 170250Z AUTO 24006KT 9999 NCD 04/03 Q1008
  • 170220Z AUTO 23006KT 9999 NCD 04/03 Q1008
  • 170150Z AUTO 23005KT 9999 NCD 04/02 Q1008

TAF TAF EGPM
Valid from the 17 at 03:00 until the 17 at 12:00 UTC


170203Z 1703/1712 25005KT 9999 FEW025
PROB30
TEMPO 1703/1710 7000 SHRA BKN012
BECMG 1706/1709 34010KT



MET'MAP, your aeronautical weather chart ! - Copyright ORBIFLY December 2007 - Disclaimer

ORBIFLY MET'MAP TEAM :

Programming & Development : Alexandra Zaïnal
Concept & Development : Baudouin d'Aumeries
Co-Development & Prog : Marc-Olivier Méhu
Technical & hardware support : Manuel Goepfert

Contact : metmap@orbifly.com




SOURCES & CREDITS :

   NOAA